createdAt,value
2019-05-07T00:01:05.231Z,77.50
2019-05-07T00:03:34.595Z,77.70
2019-05-07T00:06:04.271Z,78.10
2019-05-07T00:08:33.727Z,78.30
2019-05-07T00:11:03.167Z,78.60
2019-05-07T00:13:33.276Z,78.70
2019-05-07T00:16:02.851Z,78.90
2019-05-07T00:18:32.445Z,79.00
2019-05-07T00:21:03.497Z,79.00
2019-05-07T00:23:33.087Z,79.10
2019-05-07T00:26:03.527Z,79.10
2019-05-07T00:28:32.995Z,79.20
2019-05-07T00:31:02.979Z,79.30
2019-05-07T00:33:33.307Z,79.20
2019-05-07T00:36:14.120Z,79.00
2019-05-07T00:38:45.909Z,79.10
2019-05-07T00:41:23.826Z,79.30
2019-05-07T00:43:55.395Z,79.40
2019-05-07T00:46:27.700Z,79.50
2019-05-07T00:48:57.099Z,79.70
2019-05-07T00:51:33.161Z,80.00
2019-05-07T00:54:03.103Z,80.20
2019-05-07T00:56:33.215Z,80.30
2019-05-07T00:59:02.789Z,80.10
2019-05-07T01:01:33.157Z,79.90
2019-05-07T01:04:02.842Z,79.80
2019-05-07T01:06:33.058Z,79.70
2019-05-07T01:09:03.348Z,79.70
2019-05-07T01:11:33.560Z,79.70
2019-05-07T01:14:03.187Z,79.80
2019-05-07T01:16:33.144Z,79.80
2019-05-07T01:19:02.596Z,79.90
2019-05-07T01:21:32.595Z,80.00
2019-05-07T01:24:03.178Z,80.20
2019-05-07T01:26:33.254Z,80.40
2019-05-07T01:29:03.360Z,80.50
2019-05-07T01:31:37.538Z,80.60
2019-05-07T01:34:26.931Z,80.60
2019-05-07T01:36:56.743Z,80.70
2019-05-07T01:39:26.137Z,80.70
2019-05-07T01:41:55.511Z,80.80
2019-05-07T01:44:24.916Z,80.80
2019-05-07T01:46:54.293Z,80.80
2019-05-07T01:49:24.182Z,80.70
2019-05-07T01:51:53.691Z,80.70
2019-05-07T01:54:23.781Z,80.70
2019-05-07T01:56:53.319Z,80.60
2019-05-07T01:59:22.756Z,80.80
2019-05-07T02:01:53.969Z,80.80
2019-05-07T02:04:29.101Z,81.00
2019-05-07T02:07:17.426Z,81.00
2019-05-07T02:09:55.020Z,81.10
2019-05-07T02:12:34.920Z,81.10
2019-05-07T02:15:04.768Z,81.10
2019-05-07T02:17:34.159Z,81.10
2019-05-07T02:20:03.675Z,81.20
2019-05-07T02:22:33.095Z,81.20
2019-05-07T02:25:03.300Z,81.40
2019-05-07T02:27:33.069Z,81.40
2019-05-07T02:30:04.283Z,81.50
2019-05-07T02:32:33.908Z,81.60
2019-05-07T02:35:04.205Z,81.70
2019-05-07T02:37:51.234Z,81.60
2019-05-07T02:40:23.110Z,81.60
2019-05-07T02:42:53.966Z,81.80
2019-05-07T02:45:43.780Z,81.90
2019-05-07T02:48:12.994Z,81.80
2019-05-07T02:51:13.162Z,81.90
2019-05-07T02:54:13.418Z,81.90
2019-05-07T02:56:43.434Z,81.90
2019-05-07T02:59:13.689Z,82.00
2019-05-07T03:01:43.613Z,82.00
2019-05-07T03:04:13.103Z,82.10
2019-05-07T03:06:44.332Z,82.10
2019-05-07T03:09:14.527Z,82.10
2019-05-07T03:11:44.182Z,82.10
2019-05-07T03:14:14.162Z,82.20
2019-05-07T03:16:48.807Z,82.20
2019-05-07T03:19:15.209Z,82.20
2019-05-07T03:21:54.338Z,82.10
2019-05-07T03:24:46.225Z,82.00
2019-05-07T03:27:15.890Z,82.00
2019-05-07T03:29:53.495Z,82.10
2019-05-07T03:32:36.798Z,82.00
2019-05-07T03:35:20.933Z,82.10
2019-05-07T03:37:50.884Z,82.10
2019-05-07T03:40:22.876Z,82.20
2019-05-07T03:42:53.447Z,82.30
2019-05-07T03:45:29.505Z,82.30
2019-05-07T03:48:15.777Z,82.40
2019-05-07T03:50:45.191Z,82.40
2019-05-07T03:53:14.772Z,82.50
2019-05-07T03:55:44.904Z,82.50
2019-05-07T03:58:14.826Z,82.50
2019-05-07T04:00:44.870Z,82.40
2019-05-07T04:03:19.103Z,82.30
2019-05-07T04:05:45.288Z,82.20
2019-05-07T04:08:14.771Z,82.20
2019-05-07T04:10:44.594Z,82.20
2019-05-07T04:13:14.476Z,82.10
2019-05-07T04:15:44.427Z,82.00
2019-05-07T04:18:13.822Z,82.00
2019-05-07T04:20:43.876Z,82.00
2019-05-07T04:23:13.946Z,81.90
2019-05-07T04:26:13.403Z,81.70
2019-05-07T04:28:53.651Z,81.70
2019-05-07T04:31:22.944Z,81.50
2019-05-07T04:33:53.334Z,81.40
2019-05-07T04:36:33.768Z,81.30
2019-05-07T04:39:02.934Z,81.40
2019-05-07T04:41:33.103Z,81.50
2019-05-07T04:44:03.509Z,81.50
2019-05-07T04:46:33.799Z,81.70
2019-05-07T04:49:03.888Z,81.90
2019-05-07T04:51:52.918Z,81.80
2019-05-07T04:54:23.623Z,81.80
2019-05-07T04:56:53.412Z,81.60
2019-05-07T04:59:23.799Z,81.50
2019-05-07T05:02:04.192Z,81.50
2019-05-07T05:04:34.736Z,81.30
2019-05-07T05:07:04.552Z,81.00
2019-05-07T05:09:33.956Z,80.80
2019-05-07T05:12:03.342Z,80.70
2019-05-07T05:14:33.901Z,80.20
2019-05-07T05:17:03.578Z,79.70
2019-05-07T05:19:33.007Z,79.50
2019-05-07T05:22:12.791Z,79.10
2019-05-07T05:24:45.082Z,78.80
2019-05-07T05:27:14.395Z,78.30
2019-05-07T05:29:43.810Z,77.90
2019-05-07T05:32:13.188Z,77.40
2019-05-07T05:34:42.723Z,77.10
2019-05-07T05:37:12.111Z,76.60
2019-05-07T05:39:42.707Z,76.20
2019-05-07T05:42:25.839Z,75.60
2019-05-07T05:44:55.311Z,75.00
2019-05-07T05:47:24.761Z,74.50
2019-05-07T05:49:54.139Z,74.30
2019-05-07T05:52:32.879Z,73.80
2019-05-07T05:55:06.763Z,73.70
2019-05-07T05:57:48.878Z,73.20
2019-05-07T06:00:36.303Z,72.60
2019-05-07T06:03:23.030Z,71.90
2019-05-07T06:06:23.088Z,71.90
2019-05-07T06:09:13.309Z,70.90
2019-05-07T06:11:54.992Z,70.40
2019-05-07T06:14:33.307Z,69.70
2019-05-07T06:17:22.285Z,69.10
2019-05-07T06:19:58.850Z,68.50
2019-05-07T06:22:42.340Z,67.70
2019-05-07T06:25:16.912Z,66.90
2019-05-07T06:27:46.331Z,66.50
2019-05-07T06:30:16.739Z,66.00
2019-05-07T06:32:46.123Z,65.80
2019-05-07T06:35:15.537Z,65.80
2019-05-07T06:37:45.913Z,65.60
2019-05-07T06:40:32.075Z,65.20
2019-05-07T06:43:15.924Z,64.40
2019-05-07T06:45:53.433Z,64.70
2019-05-07T06:48:37.800Z,64.90
2019-05-07T06:50:56.879Z,64.70
2019-05-07T06:53:28.088Z,63.90
2019-05-07T06:55:58.190Z,63.10
2019-05-07T06:58:33.666Z,62.30
2019-05-07T07:01:32.257Z,62.30
2019-05-07T07:04:13.322Z,62.00
2019-05-07T07:07:06.687Z,61.40
2019-05-07T07:09:51.914Z,61.20
2019-05-07T07:12:25.956Z,60.60
2019-05-07T07:14:56.564Z,60.90
2019-05-07T07:17:26.019Z,60.60
2019-05-07T07:19:55.403Z,60.20
2019-05-07T07:22:24.871Z,60.00
2019-05-07T07:24:54.278Z,59.20
2019-05-07T07:27:23.687Z,58.50
2019-05-07T07:30:02.410Z,57.80
2019-05-07T07:32:35.569Z,57.00
2019-05-07T07:35:06.716Z,56.70
2019-05-07T07:37:39.418Z,56.00
2019-05-07T07:40:32.685Z,55.40
2019-05-07T07:43:04.838Z,55.80
2019-05-07T07:45:33.212Z,55.00
2019-05-07T07:48:02.634Z,55.40
2019-05-07T07:50:33.061Z,55.80
2019-05-07T07:53:02.728Z,55.20
2019-05-07T07:55:46.368Z,54.80
2019-05-07T07:58:41.943Z,54.80
2019-05-07T08:01:16.120Z,54.40
2019-05-07T08:03:45.571Z,53.90
2019-05-07T08:06:14.984Z,53.40
2019-05-07T08:08:44.389Z,52.70
2019-05-07T08:11:13.778Z,51.90
2019-05-07T08:13:43.177Z,50.10
2019-05-07T08:16:13.041Z,49.50
2019-05-07T08:18:43.652Z,48.60
2019-05-07T08:21:13.173Z,47.70
2019-05-07T08:23:42.582Z,47.40
2019-05-07T08:26:12.711Z,47.00
2019-05-07T08:28:42.145Z,46.50
2019-05-07T08:31:48.687Z,46.60
2019-05-07T08:34:23.425Z,46.20
2019-05-07T08:36:52.845Z,45.60
2019-05-07T08:39:25.059Z,45.00
2019-05-07T08:41:53.379Z,44.20
2019-05-07T08:44:26.295Z,43.40
2019-05-07T08:47:22.707Z,43.10
2019-05-07T08:49:52.389Z,42.50
2019-05-07T08:52:22.351Z,42.00
2019-05-07T08:54:52.873Z,41.80
2019-05-07T08:57:22.866Z,41.80
2019-05-07T09:00:00.525Z,41.20
2019-05-07T09:02:23.459Z,39.80
2019-05-07T09:04:52.858Z,39.00
2019-05-07T09:07:22.289Z,38.70
2019-05-07T09:09:52.312Z,37.70
2019-05-07T09:12:22.922Z,37.40
2019-05-07T09:14:53.052Z,37.20
2019-05-07T09:17:23.103Z,36.00
2019-05-07T09:19:54.952Z,36.10
2019-05-07T09:22:23.700Z,36.20
2019-05-07T09:24:53.222Z,36.00
2019-05-07T09:27:32.700Z,35.50
2019-05-07T09:30:22.055Z,34.70
2019-05-07T09:32:58.707Z,34.80
2019-05-07T09:35:56.256Z,34.10
2019-05-07T09:38:25.734Z,34.50
2019-05-07T09:40:56.989Z,34.00
2019-05-07T09:43:26.469Z,34.30
2019-05-07T09:45:55.917Z,33.80
2019-05-07T09:48:25.286Z,33.60
2019-05-07T09:50:54.724Z,33.30
2019-05-07T09:53:24.136Z,32.60
2019-05-07T09:55:53.589Z,32.50
2019-05-07T09:58:35.781Z,32.40
2019-05-07T10:00:54.168Z,32.50
2019-05-07T10:03:23.671Z,33.70
2019-05-07T10:05:53.088Z,34.30
2019-05-07T10:08:22.483Z,35.10
2019-05-07T10:10:53.238Z,36.00
2019-05-07T10:13:36.393Z,35.50
2019-05-07T10:16:07.716Z,35.10
2019-05-07T10:18:36.918Z,35.00
2019-05-07T10:21:06.353Z,34.80
2019-05-07T10:23:35.856Z,33.90
2019-05-07T10:26:05.252Z,33.70
2019-05-07T10:28:34.719Z,33.80
2019-05-07T10:31:04.111Z,33.80
2019-05-07T10:33:33.515Z,34.70
2019-05-07T10:36:03.048Z,34.70
2019-05-07T10:38:32.434Z,35.10
2019-05-07T10:41:02.810Z,35.60
2019-05-07T10:43:32.824Z,35.80
2019-05-07T10:46:21.323Z,36.10
2019-05-07T10:48:55.208Z,36.20
2019-05-07T10:51:25.171Z,35.80
2019-05-07T10:53:54.563Z,34.90
2019-05-07T10:56:23.961Z,34.10
2019-05-07T10:58:53.398Z,33.50
2019-05-07T11:01:30.444Z,33.80
2019-05-07T11:04:01.725Z,33.60
2019-05-07T11:06:32.364Z,33.40
2019-05-07T11:09:01.835Z,32.70
2019-05-07T11:11:31.884Z,32.40
2019-05-07T11:14:01.960Z,31.80
2019-05-07T11:16:35.555Z,31.30
2019-05-07T11:19:05.365Z,31.00
2019-05-07T11:21:34.764Z,30.70
2019-05-07T11:24:04.251Z,30.50
2019-05-07T11:26:33.727Z,31.00
2019-05-07T11:29:03.136Z,31.20
2019-05-07T11:31:33.037Z,31.60
2019-05-07T11:34:03.021Z,31.50
2019-05-07T11:36:34.377Z,31.30
2019-05-07T11:39:04.332Z,30.80
2019-05-07T11:41:42.012Z,30.80
2019-05-07T11:44:16.193Z,31.00
2019-05-07T11:47:03.160Z,30.80
2019-05-07T11:49:52.334Z,30.90
2019-05-07T11:52:27.823Z,31.50
2019-05-07T11:54:57.228Z,31.20
2019-05-07T11:57:26.737Z,31.30
2019-05-07T11:59:56.195Z,31.40
2019-05-07T12:02:25.584Z,31.40
2019-05-07T12:04:55.011Z,31.10
2019-05-07T12:07:24.411Z,30.70
2019-05-07T12:09:53.915Z,30.40
2019-05-07T12:12:23.335Z,30.40
2019-05-07T12:14:52.843Z,29.90
2019-05-07T12:17:22.428Z,30.10
2019-05-07T12:19:52.690Z,30.10
2019-05-07T12:22:39.588Z,30.20
2019-05-07T12:25:09.086Z,30.50
2019-05-07T12:27:38.475Z,30.10
2019-05-07T12:30:12.057Z,29.80
2019-05-07T12:32:58.399Z,29.90
2019-05-07T12:35:27.808Z,29.90
2019-05-07T12:37:57.259Z,29.90
2019-05-07T12:40:26.668Z,29.80
2019-05-07T12:42:56.064Z,29.90
2019-05-07T12:45:25.464Z,29.80
2019-05-07T12:47:54.928Z,29.90
2019-05-07T12:50:24.342Z,29.80
2019-05-07T12:53:05.060Z,29.80
2019-05-07T12:55:42.841Z,29.90
2019-05-07T12:58:12.687Z,29.90
2019-05-07T13:00:56.178Z,29.80
2019-05-07T13:03:44.547Z,29.70
2019-05-07T13:06:13.971Z,29.90
2019-05-07T13:08:43.417Z,29.90
2019-05-07T13:11:13.322Z,29.80
2019-05-07T13:13:42.831Z,29.80
2019-05-07T13:16:12.823Z,29.70
2019-05-07T13:18:42.417Z,29.80
2019-05-07T13:21:12.001Z,29.20
2019-05-07T13:23:42.187Z,29.50
2019-05-07T13:26:11.679Z,29.30
2019-05-07T13:28:41.989Z,29.20
2019-05-07T13:31:12.574Z,29.20
2019-05-07T13:33:43.430Z,29.40
2019-05-07T13:36:12.951Z,29.50
2019-05-07T13:38:52.178Z,29.90
2019-05-07T13:41:35.321Z,30.00
2019-05-07T13:44:23.581Z,30.40
2019-05-07T13:47:12.943Z,30.60
2019-05-07T13:49:42.821Z,30.70
2019-05-07T13:52:12.208Z,31.30
2019-05-07T13:54:41.974Z,31.50
2019-05-07T13:57:12.001Z,31.80
2019-05-07T13:59:42.421Z,32.20
2019-05-07T14:02:15.377Z,32.40
2019-05-07T14:04:43.978Z,32.00
2019-05-07T14:07:13.465Z,31.90
2019-05-07T14:09:42.875Z,31.60
2019-05-07T14:12:12.447Z,31.70
2019-05-07T14:14:42.563Z,31.70
2019-05-07T14:17:12.653Z,32.00
2019-05-07T14:19:42.418Z,32.00
2019-05-07T14:22:16.272Z,31.70
2019-05-07T14:24:42.933Z,31.30
2019-05-07T14:27:12.385Z,31.20
2019-05-07T14:29:42.444Z,31.00
2019-05-07T14:32:20.848Z,31.10
2019-05-07T14:35:14.986Z,31.00
2019-05-07T14:37:47.900Z,30.90
2019-05-07T14:40:17.539Z,30.60
2019-05-07T14:42:52.530Z,30.80
2019-05-07T14:45:23.838Z,30.70
2019-05-07T14:47:53.158Z,30.50
2019-05-07T14:50:22.741Z,30.20
2019-05-07T14:52:55.074Z,30.00
2019-05-07T14:55:23.295Z,30.00
2019-05-07T14:57:52.839Z,30.00
2019-05-07T15:00:22.647Z,29.90
2019-05-07T15:02:52.570Z,29.70
2019-05-07T15:05:22.456Z,29.70
2019-05-07T15:07:52.099Z,29.60
2019-05-07T15:10:22.279Z,29.30
2019-05-07T15:12:52.275Z,29.20
2019-05-07T15:15:22.061Z,29.20
2019-05-07T15:18:12.231Z,28.90
2019-05-07T15:20:42.280Z,28.70
2019-05-07T15:23:19.358Z,28.40
2019-05-07T15:25:48.845Z,28.20
2019-05-07T15:28:18.555Z,27.70
2019-05-07T15:30:54.843Z,27.90
2019-05-07T15:33:24.219Z,28.00
2019-05-07T15:35:53.644Z,27.90
2019-05-07T15:38:23.589Z,27.70
2019-05-07T15:40:53.606Z,27.60
2019-05-07T15:43:23.008Z,27.40
2019-05-07T15:45:52.589Z,27.50
2019-05-07T15:48:22.145Z,27.10
2019-05-07T15:50:52.000Z,26.60
2019-05-07T15:53:28.308Z,26.50
2019-05-07T15:55:57.677Z,26.40
2019-05-07T15:58:27.122Z,26.60
2019-05-07T16:00:56.694Z,26.50
2019-05-07T16:03:34.423Z,26.10
2019-05-07T16:06:03.970Z,25.30
2019-05-07T16:08:36.370Z,24.50
2019-05-07T16:11:05.822Z,23.80
2019-05-07T16:13:37.506Z,23.10
2019-05-07T16:16:06.908Z,22.90
2019-05-07T16:18:42.128Z,22.90
2019-05-07T16:21:12.099Z,23.10
2019-05-07T16:23:41.528Z,23.10
2019-05-07T16:26:12.915Z,23.20
2019-05-07T16:28:41.985Z,23.40
2019-05-07T16:31:11.417Z,24.10
2019-05-07T16:33:42.924Z,23.90
2019-05-07T16:36:12.623Z,24.20
2019-05-07T16:38:42.020Z,24.70
2019-05-07T16:41:13.414Z,25.10
2019-05-07T16:43:42.856Z,25.50
2019-05-07T16:46:12.301Z,25.70
2019-05-07T16:48:43.781Z,25.90
2019-05-07T16:51:12.873Z,26.50
2019-05-07T16:53:42.339Z,26.90
2019-05-07T16:56:12.393Z,27.10
2019-05-07T16:58:49.064Z,26.90
2019-05-07T17:01:18.462Z,26.70
2019-05-07T17:03:52.149Z,27.00
2019-05-07T17:06:22.433Z,27.50
2019-05-07T17:09:10.170Z,27.70
2019-05-07T17:11:39.575Z,27.90
2019-05-07T17:14:09.044Z,28.00
2019-05-07T17:16:38.442Z,28.50
2019-05-07T17:19:08.201Z,29.00
2019-05-07T17:21:37.795Z,29.40
2019-05-07T17:24:07.264Z,29.80
2019-05-07T17:26:36.779Z,30.40
2019-05-07T17:29:06.349Z,31.00
2019-05-07T17:31:35.845Z,31.30
2019-05-07T17:34:05.342Z,31.60
2019-05-07T17:36:34.781Z,31.70
2019-05-07T17:39:05.415Z,32.00
2019-05-07T17:41:34.798Z,32.50
2019-05-07T17:44:04.183Z,32.90
2019-05-07T17:46:33.637Z,33.80
2019-05-07T17:49:03.154Z,33.40
2019-05-07T17:51:52.638Z,33.70
2019-05-07T17:54:22.545Z,34.00
2019-05-07T17:56:52.708Z,34.40
2019-05-07T17:59:22.195Z,34.80
2019-05-07T18:02:08.964Z,35.50
2019-05-07T18:04:50.607Z,36.10
2019-05-07T18:07:12.009Z,36.90
2019-05-07T18:09:42.470Z,37.50
2019-05-07T18:12:12.168Z,38.10
2019-05-07T18:14:42.421Z,38.60
2019-05-07T18:17:22.017Z,39.00
2019-05-07T18:19:51.614Z,39.30
2019-05-07T18:22:22.165Z,39.60
2019-05-07T18:24:51.749Z,39.90
2019-05-07T18:27:23.887Z,40.20
2019-05-07T18:29:53.343Z,40.60
2019-05-07T18:32:25.578Z,41.00
2019-05-07T18:34:55.004Z,41.40
2019-05-07T18:37:24.417Z,41.90
2019-05-07T18:39:53.946Z,42.40
2019-05-07T18:42:23.442Z,42.70
2019-05-07T18:44:53.010Z,43.30
2019-05-07T18:47:22.529Z,43.60
2019-05-07T18:49:52.355Z,43.80
2019-05-07T18:52:23.002Z,44.00
2019-05-07T18:54:52.419Z,44.10
2019-05-07T18:57:22.263Z,44.40
2019-05-07T18:59:53.097Z,44.50
2019-05-07T19:02:22.814Z,44.70
2019-05-07T19:04:52.318Z,45.00
2019-05-07T19:07:22.989Z,45.20
2019-05-07T19:09:52.651Z,45.50
2019-05-07T19:12:25.175Z,45.80
2019-05-07T19:14:54.626Z,46.10
2019-05-07T19:17:25.757Z,46.30
2019-05-07T19:19:55.341Z,46.40
2019-05-07T19:22:24.871Z,46.50
2019-05-07T19:24:54.337Z,46.70
2019-05-07T19:27:23.750Z,46.70
2019-05-07T19:29:53.132Z,47.00
2019-05-07T19:32:22.942Z,47.20
2019-05-07T19:34:53.405Z,47.30
2019-05-07T19:37:22.891Z,47.40
2019-05-07T19:39:52.466Z,47.60
2019-05-07T19:42:21.832Z,47.80
2019-05-07T19:44:51.959Z,47.90
2019-05-07T19:47:23.272Z,48.10
2019-05-07T19:49:52.835Z,48.30
2019-05-07T19:52:23.112Z,48.40
2019-05-07T19:55:00.782Z,48.50
2019-05-07T19:57:28.676Z,48.70
2019-05-07T19:59:58.050Z,48.90
2019-05-07T20:02:32.160Z,49.10
2019-05-07T20:05:03.492Z,49.40
2019-05-07T20:07:32.667Z,49.50
2019-05-07T20:10:02.655Z,49.70
2019-05-07T20:12:32.712Z,49.90
2019-05-07T20:15:02.833Z,50.10
2019-05-07T20:17:33.585Z,50.30
2019-05-07T20:20:03.520Z,50.50
2019-05-07T20:22:33.374Z,50.70
2019-05-07T20:25:15.720Z,50.90
2019-05-07T20:27:33.815Z,51.00
2019-05-07T20:30:03.295Z,51.30
2019-05-07T20:32:33.040Z,51.60
2019-05-07T20:35:02.790Z,51.90
2019-05-07T20:37:32.988Z,52.20
2019-05-07T20:40:03.040Z,52.40
2019-05-07T20:42:32.947Z,52.60
2019-05-07T20:45:03.027Z,52.70
2019-05-07T20:47:32.704Z,52.90
2019-05-07T20:50:02.287Z,52.90
2019-05-07T20:52:32.536Z,53.00
2019-05-07T20:55:27.961Z,53.10
2019-05-07T20:57:46.643Z,53.30
2019-05-07T21:00:24.031Z,53.40
2019-05-07T21:03:12.614Z,53.50
2019-05-07T21:05:42.293Z,53.50
2019-05-07T21:08:12.095Z,53.60
2019-05-07T21:10:42.623Z,53.70
2019-05-07T21:13:26.841Z,53.80
2019-05-07T21:15:43.158Z,53.80
2019-05-07T21:18:12.549Z,54.00
2019-05-07T21:20:42.219Z,54.10
2019-05-07T21:23:12.349Z,54.10
2019-05-07T21:25:45.719Z,54.30
2019-05-07T21:28:12.839Z,54.40
2019-05-07T21:30:42.788Z,54.70
2019-05-07T21:33:12.189Z,54.80
2019-05-07T21:35:42.924Z,54.90
2019-05-07T21:38:12.773Z,55.00
2019-05-07T21:40:42.823Z,55.20
2019-05-07T21:43:14.233Z,55.40
2019-05-07T21:45:43.688Z,55.50
2019-05-07T21:48:13.752Z,56.20
2019-05-07T21:50:43.185Z,55.70
2019-05-07T21:53:26.907Z,55.70
2019-05-07T21:56:05.355Z,55.80
2019-05-07T21:58:38.213Z,55.80
2019-05-07T22:01:15.741Z,55.80
2019-05-07T22:03:48.631Z,56.00
2019-05-07T22:06:18.046Z,56.00
2019-05-07T22:08:47.569Z,56.10
2019-05-07T22:11:16.936Z,56.10
2019-05-07T22:13:46.319Z,56.20
2019-05-07T22:16:15.748Z,56.30
2019-05-07T22:18:45.147Z,56.30
2019-05-07T22:21:14.580Z,56.40
2019-05-07T22:23:44.039Z,56.60
2019-05-07T22:26:22.640Z,56.70
2019-05-07T22:28:44.549Z,56.70
2019-05-07T22:31:44.767Z,56.80
2019-05-07T22:34:33.079Z,56.90
2019-05-07T22:37:03.376Z,57.00
2019-05-07T22:39:32.879Z,57.10
2019-05-07T22:42:02.458Z,57.80
2019-05-07T22:44:32.286Z,57.50
2019-05-07T22:47:18.719Z,57.70
2019-05-07T22:49:49.469Z,57.80
2019-05-07T22:52:19.505Z,58.00
2019-05-07T22:54:48.925Z,58.10
2019-05-07T22:57:27.727Z,58.20
2019-05-07T22:59:57.126Z,58.20
2019-05-07T23:02:26.536Z,58.90
2019-05-07T23:04:55.921Z,58.20
2019-05-07T23:07:25.328Z,58.30
2019-05-07T23:09:54.733Z,58.40
2019-05-07T23:12:24.157Z,58.40
2019-05-07T23:14:53.770Z,58.50
2019-05-07T23:17:23.172Z,58.50
2019-05-07T23:19:55.069Z,58.60
2019-05-07T23:22:23.807Z,58.70
2019-05-07T23:24:53.220Z,58.80
2019-05-07T23:27:22.682Z,58.80
2019-05-07T23:29:52.871Z,58.80
2019-05-07T23:32:22.409Z,58.90
2019-05-07T23:34:52.729Z,59.00
2019-05-07T23:37:22.593Z,59.10
2019-05-07T23:39:53.965Z,59.20
2019-05-07T23:42:27.250Z,59.40
2019-05-07T23:44:56.662Z,59.50
2019-05-07T23:47:26.055Z,59.60
2019-05-07T23:49:55.477Z,59.70
2019-05-07T23:52:24.886Z,59.60
2019-05-07T23:54:54.365Z,59.50
2019-05-07T23:57:23.920Z,59.50
2019-05-07T23:59:53.337Z,59.50
